createdAt,value
2019-02-27T00:02:56.662Z,102734.98
2019-02-27T00:06:14.966Z,102739.12
2019-02-27T00:09:26.484Z,102732.19
2019-02-27T00:12:40.330Z,102735.69
2019-02-27T00:15:54.180Z,102730.51
2019-02-27T00:19:08.009Z,102724.95
2019-02-27T00:22:25.126Z,102723.82
2019-02-27T00:25:39.036Z,102713.41
2019-02-27T00:28:55.976Z,102715.70
2019-02-27T00:32:08.677Z,102708.74
2019-02-27T00:35:22.493Z,102703.25
2019-02-27T00:38:36.351Z,102702.42
2019-02-27T00:41:50.215Z,102705.05
2019-02-27T00:45:09.560Z,102698.19
2019-02-27T00:48:26.003Z,102693.38
2019-02-27T00:51:39.159Z,102691.72
2019-02-27T00:54:52.971Z,102697.45
2019-02-27T00:58:06.818Z,102691.81
2019-02-27T01:01:20.656Z,102688.83
2019-02-27T01:04:35.109Z,102688.09
2019-02-27T01:07:53.853Z,102691.30
2019-02-27T01:11:05.384Z,102692.80
2019-02-27T01:14:19.329Z,102694.78
2019-02-27T01:17:33.476Z,102689.56
2019-02-27T01:20:47.416Z,102685.64
2019-02-27T01:24:01.264Z,102688.30
2019-02-27T01:27:15.072Z,102678.69
2019-02-27T01:30:28.908Z,102678.31
2019-02-27T01:33:42.882Z,102677.11
2019-02-27T01:36:58.081Z,102673.14
2019-02-27T01:40:17.528Z,102666.10
2019-02-27T01:43:29.957Z,102657.80
2019-02-27T01:46:43.815Z,102658.88
2019-02-27T01:49:57.675Z,102663.02
2019-02-27T01:53:11.520Z,102656.13
2019-02-27T01:56:28.932Z,102653.97
2019-02-27T01:59:41.083Z,102648.79
2019-02-27T02:02:55.240Z,102654.94
2019-02-27T02:06:09.076Z,102643.18
2019-02-27T02:09:31.204Z,102636.20
2019-02-27T02:12:51.531Z,102634.14
2019-02-27T02:16:12.267Z,102630.27
2019-02-27T02:19:35.877Z,102620.80
2019-02-27T02:23:08.683Z,102617.81
2019-02-27T02:26:44.374Z,102614.78
2019-02-27T02:30:13.932Z,102610.08
2019-02-27T02:34:06.236Z,102598.48
2019-02-27T02:37:47.294Z,102596.41
2019-02-27T02:41:10.976Z,102589.56
2019-02-27T02:44:43.923Z,102589.64
2019-02-27T02:48:22.629Z,102581.00
2019-02-27T02:51:49.326Z,102576.68
2019-02-27T02:55:24.717Z,102571.88
2019-02-27T02:58:54.580Z,102572.81
2019-02-27T03:02:23.472Z,102575.09
2019-02-27T03:05:43.450Z,102564.66
2019-02-27T03:09:06.867Z,102565.60
2019-02-27T03:12:30.955Z,102570.00
2019-02-27T03:15:46.819Z,102555.65
2019-02-27T03:19:10.436Z,102557.89
2019-02-27T03:22:40.187Z,102554.48
2019-02-27T03:25:56.167Z,102546.75
2019-02-27T03:29:17.349Z,102540.13
2019-02-27T03:32:50.371Z,102537.98
2019-02-27T03:36:25.721Z,102535.31
2019-02-27T03:40:02.729Z,102532.73
2019-02-27T03:43:45.962Z,102531.09
2019-02-27T03:47:27.107Z,102528.48
2019-02-27T03:50:56.962Z,102534.27
2019-02-27T03:54:20.932Z,102533.98
2019-02-27T03:57:56.038Z,102533.65
2019-02-27T04:01:31.418Z,102531.05
2019-02-27T04:05:14.939Z,102529.89
2019-02-27T04:08:55.885Z,102527.28
2019-02-27T04:12:09.901Z,102523.89
2019-02-27T04:15:23.853Z,102521.39
2019-02-27T04:18:37.459Z,102518.77
2019-02-27T04:21:51.317Z,102517.56
2019-02-27T04:25:06.973Z,102523.12
2019-02-27T04:28:20.790Z,102527.11
2019-02-27T04:31:34.759Z,102520.19
2019-02-27T04:34:48.580Z,102513.29
2019-02-27T04:38:02.481Z,102508.98
2019-02-27T04:41:18.141Z,102503.27
2019-02-27T04:44:32.051Z,102505.13
2019-02-27T04:47:45.904Z,102510.45
2019-02-27T04:51:00.007Z,102508.75
2019-02-27T04:54:14.156Z,102507.58
2019-02-27T04:57:28.000Z,102509.41
2019-02-27T05:00:41.810Z,102510.37
2019-02-27T05:03:55.652Z,102510.43
2019-02-27T05:07:09.503Z,102515.27
2019-02-27T05:10:23.356Z,102507.02
2019-02-27T05:13:37.210Z,102506.17
2019-02-27T05:16:51.046Z,102504.95
2019-02-27T05:20:11.658Z,102501.77
2019-02-27T05:23:22.856Z,102497.45
2019-02-27T05:26:36.691Z,102489.66
2019-02-27T05:29:50.531Z,102479.69
2019-02-27T05:33:04.407Z,102483.58
2019-02-27T05:36:18.246Z,102481.39
2019-02-27T05:39:33.801Z,102484.88
2019-02-27T05:42:47.839Z,102484.83
2019-02-27T05:46:03.162Z,102487.05
2019-02-27T05:49:17.409Z,102478.84
2019-02-27T05:52:31.231Z,102479.32
2019-02-27T05:55:45.099Z,102476.31
2019-02-27T05:58:58.924Z,102478.14
2019-02-27T06:02:12.746Z,102475.44
2019-02-27T06:05:26.600Z,102471.58
2019-02-27T06:08:40.490Z,102471.21
2019-02-27T06:11:54.339Z,102477.42
2019-02-27T06:15:12.004Z,102479.98
2019-02-27T06:18:25.832Z,102478.20
2019-02-27T06:21:39.714Z,102479.93
2019-02-27T06:24:53.548Z,102474.98
2019-02-27T06:28:07.388Z,102473.20
2019-02-27T06:31:21.285Z,102465.28
2019-02-27T06:34:35.103Z,102470.45
2019-02-27T06:37:50.726Z,102468.60
2019-02-27T06:41:04.813Z,102459.72
2019-02-27T06:44:19.158Z,102457.42
2019-02-27T06:47:35.563Z,102455.88
2019-02-27T06:50:49.064Z,102459.20
2019-02-27T06:54:02.995Z,102453.41
2019-02-27T06:57:16.852Z,102454.17
2019-02-27T07:00:35.762Z,102450.47
2019-02-27T07:03:46.464Z,102448.11
2019-02-27T07:07:00.634Z,102451.06
2019-02-27T07:10:19.475Z,102456.45
2019-02-27T07:13:32.119Z,102453.56
2019-02-27T07:16:47.158Z,102439.38
2019-02-27T07:20:00.994Z,102439.86
2019-02-27T07:23:14.822Z,102443.50
2019-02-27T07:26:28.673Z,102437.62
2019-02-27T07:29:43.086Z,102434.19
2019-02-27T07:32:57.338Z,102432.53
2019-02-27T07:36:11.170Z,102428.62
2019-02-27T07:39:25.029Z,102438.64
2019-02-27T07:42:39.090Z,102435.84
2019-02-27T07:45:54.337Z,102451.13
2019-02-27T07:49:08.656Z,102448.98
2019-02-27T07:52:22.523Z,102452.39
2019-02-27T07:55:36.455Z,102450.67
2019-02-27T07:58:50.295Z,102448.45
2019-02-27T08:02:04.215Z,102442.06
2019-02-27T08:05:18.186Z,102437.39
2019-02-27T08:08:32.043Z,102440.95
2019-02-27T08:11:47.295Z,102431.30
2019-02-27T08:15:01.736Z,102429.19
2019-02-27T08:18:15.579Z,102431.09
2019-02-27T08:21:29.395Z,102430.66
2019-02-27T08:24:43.239Z,102433.92
2019-02-27T08:27:57.053Z,102432.97
2019-02-27T08:31:10.917Z,102434.50
2019-02-27T08:34:24.866Z,102428.14
2019-02-27T08:37:38.701Z,102427.07
2019-02-27T08:40:57.548Z,102430.50
2019-02-27T08:44:08.298Z,102430.11
2019-02-27T08:47:22.145Z,102422.30
2019-02-27T08:50:35.988Z,102423.77
2019-02-27T08:53:49.821Z,102419.58
2019-02-27T08:57:03.679Z,102412.71
2019-02-27T09:00:31.528Z,102414.90
2019-02-27T09:03:45.351Z,102410.28
2019-02-27T09:07:02.726Z,102396.83
2019-02-27T09:10:23.329Z,102398.97
2019-02-27T09:13:36.435Z,102395.30
2019-02-27T09:16:50.284Z,102397.81
2019-02-27T09:20:07.315Z,102399.08
2019-02-27T09:23:21.176Z,102392.75
2019-02-27T09:26:36.837Z,102385.15
2019-02-27T09:29:54.398Z,102377.16
2019-02-27T09:33:06.628Z,102372.53
2019-02-27T09:36:20.500Z,102372.27
2019-02-27T09:39:35.172Z,102368.23
2019-02-27T09:42:50.301Z,102367.03
2019-02-27T09:46:05.291Z,102362.64
2019-02-27T09:49:19.136Z,102350.74
2019-02-27T09:52:32.988Z,102358.19
2019-02-27T09:55:46.820Z,102353.53
2019-02-27T09:59:00.801Z,102353.08
2019-02-27T10:02:14.632Z,102352.98
2019-02-27T10:05:29.168Z,102352.59
2019-02-27T10:08:43.020Z,102352.59
2019-02-27T10:11:56.939Z,102348.05
2019-02-27T10:15:10.894Z,102349.40
2019-02-27T10:18:24.738Z,102337.45
2019-02-27T10:21:38.556Z,102343.22
2019-02-27T10:24:52.424Z,102342.66
2019-02-27T10:28:06.284Z,102333.44
2019-02-27T10:31:20.187Z,102322.75
2019-02-27T10:34:34.032Z,102326.05
2019-02-27T11:23:42.584Z,102238.17
2019-02-27T11:26:57.015Z,102236.61
2019-02-27T11:30:13.973Z,102226.38
2019-02-27T11:33:32.756Z,102217.63
2019-02-27T11:36:43.757Z,102210.20
2019-02-27T11:39:57.598Z,102205.78
2019-02-27T11:43:11.557Z,102200.20
2019-02-27T11:46:25.770Z,102195.39
2019-02-27T11:49:39.695Z,102192.59
2019-02-27T11:52:53.538Z,102185.98
2019-02-27T11:56:07.407Z,102176.89
2019-02-27T11:59:21.320Z,102174.33
2019-02-27T12:02:37.784Z,102166.03
2019-02-27T12:05:50.975Z,102151.90
2019-02-27T12:09:05.250Z,102145.41
2019-02-27T12:12:22.518Z,102141.58
2019-02-27T12:15:34.929Z,102135.42
2019-02-27T12:18:48.788Z,102134.31
2019-02-27T12:22:02.733Z,102136.52
2019-02-27T12:25:18.384Z,102126.31
2019-02-27T12:28:32.234Z,102122.47
2019-02-27T12:31:48.405Z,102118.59
2019-02-27T12:35:03.308Z,102111.91
2019-02-27T12:38:17.159Z,102101.84
2019-02-27T12:41:32.541Z,102092.22
2019-02-27T12:44:46.941Z,102088.69
2019-02-27T12:48:00.794Z,102079.23
2019-02-27T12:51:14.646Z,102071.80
2019-02-27T12:54:28.500Z,102066.77
2019-02-27T12:57:42.423Z,102060.33
2019-02-27T13:00:56.356Z,102048.09
2019-02-27T13:04:10.233Z,102049.33
2019-02-27T13:07:24.173Z,102043.02
2019-02-27T13:10:38.053Z,102038.19
2019-02-27T13:13:51.911Z,102032.39
2019-02-27T13:17:05.737Z,102022.55
2019-02-27T13:20:27.230Z,102022.98
2019-02-27T13:23:42.369Z,102018.57
2019-02-27T13:26:56.532Z,102010.48
2019-02-27T13:30:13.894Z,102002.30
2019-02-27T13:33:27.779Z,102002.52
2019-02-27T13:36:41.755Z,101994.09
2019-02-27T13:39:57.327Z,101983.52
2019-02-27T13:43:11.341Z,101985.11
2019-02-27T13:46:25.184Z,101974.22
2019-02-27T13:49:39.047Z,101963.71
2019-02-27T13:52:53.003Z,101966.46
2019-02-27T13:56:06.884Z,101955.67
2019-02-27T13:59:20.705Z,101944.19
2019-02-27T14:02:38.266Z,101939.68
2019-02-27T14:05:50.651Z,101940.48
2019-02-27T14:09:07.011Z,101924.59
2019-02-27T14:12:21.825Z,101921.20
2019-02-27T14:15:35.664Z,101907.17
2019-02-27T14:18:50.117Z,101908.06
2019-02-27T14:22:07.111Z,101900.28
2019-02-27T14:25:31.018Z,101897.23
2019-02-27T14:28:41.745Z,101887.08
2019-02-27T14:31:55.701Z,101883.25
2019-02-27T14:35:09.685Z,101879.61
2019-02-27T14:38:23.549Z,101885.02
2019-02-27T14:41:37.397Z,101874.44
2019-02-27T14:44:51.337Z,101862.83
2019-02-27T14:48:05.295Z,101859.23
2019-02-27T14:51:19.244Z,101849.56
2019-02-27T14:54:33.089Z,101847.76
2019-02-27T14:57:51.043Z,101841.30
2019-02-27T15:01:05.923Z,101843.30
2019-02-27T15:04:19.785Z,101837.95
2019-02-27T15:07:33.636Z,101832.30
2019-02-27T15:10:47.585Z,101828.98
2019-02-27T15:14:01.471Z,101817.56
2019-02-27T15:17:15.283Z,101822.07
2019-02-27T15:20:30.106Z,101813.22
2019-02-27T15:23:43.946Z,101809.11
2019-02-27T15:26:57.806Z,101803.13
2019-02-27T15:30:15.483Z,101794.03
2019-02-27T15:33:29.448Z,101794.30
2019-02-27T15:36:43.525Z,101785.38
2019-02-27T15:39:57.382Z,101779.80
2019-02-27T15:43:11.730Z,101776.32
2019-02-27T15:46:25.906Z,101772.92
2019-02-27T15:49:39.812Z,101760.36
2019-02-27T15:52:54.725Z,101759.14
2019-02-27T15:56:09.199Z,101761.23
2019-02-27T15:59:23.072Z,101754.41
2019-02-27T16:02:37.414Z,101747.52
2019-02-27T16:05:51.597Z,101753.82
2019-02-27T16:09:05.551Z,101748.45
2019-02-27T16:12:19.966Z,101743.67
2019-02-27T16:15:34.066Z,101743.05
2019-02-27T16:18:49.422Z,101735.13
2019-02-27T16:22:03.587Z,101725.52
2019-02-27T16:25:20.468Z,101727.17
2019-02-27T16:28:34.335Z,101726.95
2019-02-27T16:31:48.295Z,101725.41
2019-02-27T16:35:04.336Z,101721.94
2019-02-27T16:38:19.553Z,101715.14
2019-02-27T16:41:33.503Z,101720.00
2019-02-27T16:44:47.355Z,101711.73
2019-02-27T16:48:01.237Z,101716.03
2019-02-27T16:51:15.599Z,101708.39
2019-02-27T16:54:29.619Z,101710.45
2019-02-27T16:57:43.624Z,101710.70
2019-02-27T17:01:00.200Z,101709.59
2019-02-27T17:04:14.099Z,101704.20
2019-02-27T17:07:28.070Z,101698.30
2019-02-27T17:10:41.985Z,101701.31
2019-02-27T17:13:57.710Z,101705.38
2019-02-27T17:17:11.663Z,101706.05
2019-02-27T17:20:26.606Z,101702.03
2019-02-27T17:23:43.791Z,101702.82
2019-02-27T17:26:56.309Z,101704.75
2019-02-27T17:30:18.936Z,101704.59
2019-02-27T17:33:35.167Z,101697.94
2019-02-27T17:36:48.549Z,101692.91
2019-02-27T17:40:05.977Z,101701.03
2019-02-27T17:43:19.826Z,101697.11
2019-02-27T17:46:33.649Z,101701.78
2019-02-27T17:49:47.903Z,101701.97
2019-02-27T17:53:01.748Z,101701.08
2019-02-27T17:56:16.262Z,101696.53
2019-02-27T17:59:30.617Z,101689.67
2019-02-27T18:02:44.503Z,101695.20
2019-02-27T18:05:59.420Z,101696.77
2019-02-27T18:09:14.353Z,101685.63
2019-02-27T18:12:28.321Z,101689.12
2019-02-27T18:15:42.262Z,101684.25
2019-02-27T18:18:56.079Z,101685.55
2019-02-27T18:22:13.969Z,101684.79
2019-02-27T18:25:26.100Z,101682.19
2019-02-27T18:28:40.045Z,101679.62
2019-02-27T18:31:55.256Z,101675.44
2019-02-27T18:35:09.186Z,101669.20
2019-02-27T18:38:27.580Z,101670.57
2019-02-27T18:41:46.474Z,101671.46
2019-02-27T18:45:01.750Z,101666.89
2019-02-27T18:48:15.651Z,101667.28
2019-02-27T18:51:29.953Z,101663.22
2019-02-27T18:54:45.489Z,101655.42
2019-02-27T18:57:59.433Z,101659.17
2019-02-27T19:01:13.822Z,101653.28
2019-02-27T19:04:27.750Z,101649.52
2019-02-27T19:07:41.650Z,101651.87
2019-02-27T19:10:55.496Z,101645.41
2019-02-27T19:14:09.483Z,101640.16
2019-02-27T19:17:23.467Z,101638.11
2019-02-27T19:21:00.203Z,101641.69
2019-02-27T19:24:14.215Z,101640.06
2019-02-27T19:27:28.214Z,101638.01
2019-02-27T19:30:42.587Z,101632.14
2019-02-27T19:33:56.897Z,101636.25
2019-02-27T19:37:10.879Z,101634.19
2019-02-27T19:40:29.915Z,101627.98
2019-02-27T19:43:40.682Z,101630.66
2019-02-27T19:46:54.628Z,101631.83
2019-02-27T19:50:11.209Z,101623.13
2019-02-27T19:53:24.496Z,101612.91
2019-02-27T19:56:38.460Z,101613.69
2019-02-27T19:59:52.355Z,101607.34
2019-02-27T20:03:06.458Z,101606.70
2019-02-27T20:06:20.389Z,101599.14
2019-02-27T20:09:34.361Z,101594.89
2019-02-27T20:12:52.691Z,101590.24
2019-02-27T20:16:04.271Z,101592.36
2019-02-27T20:19:22.300Z,101595.02
2019-02-27T20:22:34.424Z,101588.50
2019-02-27T20:25:48.313Z,101583.88
2019-02-27T20:29:04.242Z,101583.47
2019-02-27T20:32:18.200Z,101589.24
2019-02-27T20:35:34.392Z,101589.15
2019-02-27T20:38:50.841Z,101584.60
2019-02-27T20:42:04.698Z,101576.20
2019-02-27T20:45:19.976Z,101583.47
2019-02-27T20:48:36.143Z,101578.52
2019-02-27T20:51:49.630Z,101575.48
2019-02-27T20:55:05.550Z,101575.14
2019-02-27T20:58:19.446Z,101574.00
2019-02-27T21:01:33.442Z,101567.67
2019-02-27T21:04:47.427Z,101570.70
2019-02-27T21:08:02.523Z,101570.89
2019-02-27T21:11:16.634Z,101570.09
2019-02-27T21:14:30.465Z,101571.97
2019-02-27T21:17:44.926Z,101579.21
2019-02-27T21:20:58.905Z,101576.64
2019-02-27T21:24:12.804Z,101572.92
2019-02-27T21:27:28.502Z,101575.72
2019-02-27T21:30:42.641Z,101582.58
2019-02-27T21:33:56.512Z,101577.39
2019-02-27T21:37:10.708Z,101580.55
2019-02-27T21:40:25.012Z,101581.20
2019-02-27T21:43:40.023Z,101580.61
2019-02-27T21:46:54.102Z,101582.48
2019-02-27T21:50:11.007Z,101581.45
2019-02-27T21:53:26.075Z,101578.39
2019-02-27T21:56:40.628Z,101576.41
2019-02-27T21:59:54.617Z,101583.97
2019-02-27T22:03:08.570Z,101587.81
2019-02-27T22:06:24.747Z,101591.55
2019-02-27T22:09:38.439Z,101590.22
2019-02-27T22:12:52.317Z,101590.70
2019-02-27T22:16:06.468Z,101585.05
2019-02-27T22:19:20.370Z,101588.98
2019-02-27T22:22:34.193Z,101582.20
2019-02-27T22:25:48.160Z,101576.56
2019-02-27T22:29:02.008Z,101571.31
2019-02-27T22:32:15.838Z,101568.06
2019-02-27T22:35:30.494Z,101572.19
2019-02-27T22:38:44.573Z,101576.29
2019-02-27T22:41:58.607Z,101575.38
2019-02-27T22:45:14.257Z,101575.00
2019-02-27T22:48:28.830Z,101570.59
2019-02-27T22:51:44.871Z,101580.23
2019-02-27T22:54:58.774Z,101573.56
2019-02-27T22:58:12.603Z,101563.09
2019-02-27T23:01:29.891Z,101568.91
2019-02-27T23:04:43.726Z,101563.48
2019-02-27T23:07:57.587Z,101568.72
2019-02-27T23:11:11.933Z,101558.89
2019-02-27T23:14:25.858Z,101557.59
2019-02-27T23:17:39.824Z,101554.25
2019-02-27T23:20:55.529Z,101554.63
2019-02-27T23:24:10.001Z,101551.15
2019-02-27T23:27:26.006Z,101550.12
2019-02-27T23:30:43.004Z,101555.34
2019-02-27T23:33:56.858Z,101550.28
2019-02-27T23:37:10.714Z,101554.73
2019-02-27T23:40:24.857Z,101545.80
2019-02-27T23:43:38.736Z,101548.05
2019-02-27T23:46:57.083Z,101545.58
2019-02-27T23:50:11.130Z,101544.41
2019-02-27T23:53:27.122Z,101545.48
2019-02-27T23:56:41.574Z,101545.84
2019-02-27T23:59:55.418Z,101544.53
